createdAt,value
2016-08-04T00:00:00.477Z,89.37
2016-08-04T00:00:59.763Z,89.75
2016-08-04T00:01:59.766Z,90.04
2016-08-04T00:03:00.493Z,89.75
2016-08-04T00:04:00.534Z,89.94
2016-08-04T00:05:00.482Z,89.85
2016-08-04T00:06:00.494Z,89.85
2016-08-04T00:07:00.491Z,89.75
2016-08-04T00:08:00.487Z,89.85
2016-08-04T00:09:00.494Z,89.75
2016-08-04T00:10:00.499Z,89.94
2016-08-04T00:11:00.499Z,89.94
2016-08-04T00:11:59.779Z,90.04
2016-08-04T00:12:59.778Z,90.23
2016-08-04T00:14:00.502Z,90.23
2016-08-04T00:15:00.498Z,90.33
2016-08-04T00:16:00.501Z,90.14
2016-08-04T00:17:00.495Z,90.04
2016-08-04T00:18:00.507Z,90.42
2016-08-04T00:19:00.503Z,90.61
2016-08-04T00:20:00.507Z,90.42
2016-08-04T00:20:59.787Z,90.42
2016-08-04T00:22:00.511Z,90.52
2016-08-04T00:23:00.499Z,90.52
2016-08-04T00:24:00.511Z,90.33
2016-08-04T00:25:00.506Z,90.52
2016-08-04T00:26:00.511Z,90.52
2016-08-04T00:27:00.515Z,90.28
2016-08-04T00:28:00.511Z,90.33
2016-08-04T00:29:00.507Z,90.38
2016-08-04T00:29:59.799Z,90.28
2016-08-04T00:30:59.794Z,90.95
2016-08-04T00:32:00.520Z,90.95
2016-08-04T00:33:00.520Z,90.95
2016-08-04T00:34:00.515Z,90.86
2016-08-04T00:35:00.524Z,91.14
2016-08-04T00:35:59.803Z,91.34
2016-08-04T00:36:59.799Z,91.34
2016-08-04T00:38:00.527Z,90.95
2016-08-04T00:39:00.520Z,91.14
2016-08-04T00:40:00.527Z,91.14
2016-08-04T00:41:00.527Z,91.14
2016-08-04T00:41:59.807Z,91.14
2016-08-04T00:43:00.531Z,90.76
2016-08-04T00:44:00.528Z,90.76
2016-08-04T00:45:00.532Z,90.76
2016-08-04T00:46:00.532Z,90.76
2016-08-04T00:46:59.815Z,91.24
2016-08-04T00:48:00.532Z,91.24
2016-08-04T00:49:00.531Z,91.14
2016-08-04T00:50:00.540Z,91.34
2016-08-04T00:51:00.536Z,91.63
2016-08-04T00:51:59.815Z,91.34
2016-08-04T00:53:00.535Z,91.63
2016-08-04T00:54:00.535Z,91.72
2016-08-04T00:55:00.535Z,91.14
2016-08-04T00:56:00.549Z,91.34
2016-08-04T00:57:00.542Z,91.1
2016-08-04T00:57:59.819Z,91.58
2016-08-04T00:58:59.820Z,91.29
2016-08-04T00:59:59.828Z,91.39
2016-08-04T01:01:00.555Z,91.49
2016-08-04T01:02:00.551Z,91.67
2016-08-04T01:03:00.546Z,91.63
2016-08-04T01:04:00.540Z,91.39
2016-08-04T01:04:59.836Z,91.34
2016-08-04T01:06:00.548Z,91.39
2016-08-04T01:06:59.831Z,91.39
2016-08-04T01:07:59.831Z,91.29
2016-08-04T01:09:00.555Z,91.39
2016-08-04T01:10:00.560Z,91.1
2016-08-04T01:11:00.551Z,91.58
2016-08-04T01:12:00.552Z,91.19
2016-08-04T01:13:00.556Z,91.39
2016-08-04T01:14:00.549Z,91.49
2016-08-04T01:15:00.560Z,91.49
2016-08-04T01:15:59.837Z,91.67
2016-08-04T01:16:59.837Z,91.67
2016-08-04T01:18:00.552Z,91.67
2016-08-04T01:18:59.836Z,91.49
2016-08-04T01:20:00.564Z,91.67
2016-08-04T01:21:00.568Z,91.39
2016-08-04T01:22:00.560Z,91.96
2016-08-04T01:23:00.564Z,91.86
2016-08-04T01:24:00.567Z,91.96
2016-08-04T01:25:00.564Z,92.25
2016-08-04T01:26:00.563Z,92.35
2016-08-04T01:27:00.565Z,92.06
2016-08-04T01:28:00.571Z,92.35
2016-08-04T01:28:59.844Z,91.96
2016-08-04T01:30:00.564Z,92.06
2016-08-04T01:31:00.574Z,92.35
2016-08-04T01:32:00.572Z,92.25
2016-08-04T01:33:00.568Z,92.25
2016-08-04T01:34:00.568Z,92.25
2016-08-04T01:34:59.893Z,92.35
2016-08-04T01:36:00.577Z,92.15
2016-08-04T01:37:00.576Z,91.96
2016-08-04T01:38:00.576Z,92.06
2016-08-04T01:39:00.577Z,91.86
2016-08-04T01:40:00.577Z,91.86
2016-08-04T01:41:00.581Z,91.96
2016-08-04T01:42:00.577Z,92.15
2016-08-04T01:43:00.581Z,91.96
2016-08-04T01:44:00.580Z,92.63
2016-08-04T01:45:00.581Z,92.73
2016-08-04T01:46:00.586Z,92.63
2016-08-04T01:47:00.581Z,92.63
2016-08-04T01:48:00.581Z,92.44
2016-08-04T01:49:00.577Z,93.26
2016-08-04T01:51:00.585Z,92.97
2016-08-04T01:52:00.581Z,92.87
2016-08-04T01:53:00.586Z,92.97
2016-08-04T01:54:00.581Z,92.87
2016-08-04T01:55:00.582Z,92.97
2016-08-04T01:56:00.589Z,92.87
2016-08-04T01:56:59.870Z,93.54
2016-08-04T01:58:00.586Z,92.87
2016-08-04T01:58:59.873Z,93.26
2016-08-04T02:00:00.593Z,92.87
2016-08-04T02:00:59.878Z,93.16
2016-08-04T02:02:00.597Z,93.07
2016-08-04T02:03:00.589Z,93.54
2016-08-04T02:03:59.929Z,93.16
2016-08-04T02:06:00.594Z,93.45
2016-08-04T02:07:00.599Z,93.64
2016-08-04T02:08:00.598Z,93.54
2016-08-04T02:09:00.607Z,93.54
2016-08-04T02:10:00.606Z,93.45
2016-08-04T02:11:00.598Z,93.35
2016-08-04T02:12:00.602Z,93.21
2016-08-04T02:13:00.602Z,93.26
2016-08-04T02:14:00.607Z,94.02
2016-08-04T02:15:00.609Z,93.98
2016-08-04T02:16:00.606Z,93.98
2016-08-04T02:17:00.609Z,93.98
2016-08-04T02:17:59.887Z,93.98
2016-08-04T02:18:59.887Z,93.79
2016-08-04T02:19:59.890Z,93.98
2016-08-04T02:20:59.886Z,93.79
2016-08-04T02:21:59.890Z,93.79
2016-08-04T02:23:00.609Z,93.79
2016-08-04T02:24:00.602Z,93.98
2016-08-04T02:25:00.607Z,93.79
2016-08-04T02:26:00.614Z,93.79
2016-08-04T02:27:00.614Z,93.88
2016-08-04T02:28:00.617Z,93.79
2016-08-04T02:29:00.623Z,93.98
2016-08-04T02:30:00.619Z,93.79
2016-08-04T02:31:00.626Z,94.07
2016-08-04T02:31:59.894Z,93.98
2016-08-04T02:32:59.898Z,94.17
2016-08-04T02:34:00.615Z,94.36
2016-08-04T02:35:00.614Z,94.07
2016-08-04T02:36:00.614Z,94.17
2016-08-04T02:37:00.610Z,94.36
2016-08-04T02:38:00.625Z,93.88
2016-08-04T02:39:00.618Z,93.79
2016-08-04T02:40:00.619Z,93.79
2016-08-04T02:40:59.899Z,93.79
2016-08-04T02:42:00.617Z,93.98
2016-08-04T02:43:00.627Z,93.88
2016-08-04T02:44:00.626Z,93.79
2016-08-04T02:45:00.627Z,93.79
2016-08-04T02:46:00.623Z,93.98
2016-08-04T02:46:59.903Z,94.07
2016-08-04T02:48:00.631Z,93.84
2016-08-04T02:49:00.627Z,93.98
2016-08-04T02:49:59.907Z,93.79
2016-08-04T02:51:00.631Z,94.07
2016-08-04T02:52:00.635Z,93.88
2016-08-04T02:53:00.628Z,93.79
2016-08-04T02:54:00.631Z,93.98
2016-08-04T02:55:00.630Z,93.79
2016-08-04T02:55:59.915Z,94.36
2016-08-04T02:57:00.631Z,94.07
2016-08-04T02:58:00.639Z,94.45
2016-08-04T02:59:00.640Z,94.55
2016-08-04T03:00:00.636Z,94.26
2016-08-04T03:00:59.918Z,94.65
2016-08-04T03:02:00.629Z,94.45
2016-08-04T03:03:00.635Z,94.65
2016-08-04T03:04:00.631Z,94.93
2016-08-04T03:05:00.634Z,94.93
2016-08-04T03:06:00.637Z,95.03
2016-08-04T03:06:59.928Z,95.03
2016-08-04T03:08:00.639Z,94.93
2016-08-04T03:09:00.636Z,94.84
2016-08-04T03:10:00.640Z,95.12
2016-08-04T03:10:59.915Z,95.12
2016-08-04T03:12:00.636Z,95.03
2016-08-04T03:13:00.640Z,95.22
2016-08-04T03:14:00.640Z,95.17
2016-08-04T03:15:00.641Z,95.12
2016-08-04T03:15:59.917Z,95.07
2016-08-04T03:17:00.640Z,95.22
2016-08-04T03:18:00.640Z,94.98
2016-08-04T03:19:00.652Z,95.22
2016-08-04T03:20:00.644Z,95.03
2016-08-04T03:20:59.928Z,95.03
2016-08-04T03:22:00.644Z,95.17
2016-08-04T03:23:00.649Z,95.07
2016-08-04T03:24:00.645Z,95.22
2016-08-04T03:24:59.929Z,94.98
2016-08-04T03:26:00.641Z,95.65
2016-08-04T03:27:00.640Z,95.56
2016-08-04T03:28:00.644Z,95.65
2016-08-04T03:28:59.936Z,95.56
2016-08-04T03:29:59.931Z,95.36
2016-08-04T03:31:00.652Z,94.98
2016-08-04T03:32:00.649Z,94.89
2016-08-04T03:32:59.928Z,94.89
2016-08-04T03:33:59.933Z,95.46
2016-08-04T03:35:00.654Z,95.07
2016-08-04T03:36:00.653Z,95.46
2016-08-04T03:36:59.936Z,95.36
2016-08-04T03:38:00.653Z,95.07
2016-08-04T03:39:00.649Z,95.75
2016-08-04T03:40:00.656Z,95.27
2016-08-04T03:41:00.650Z,95.75
2016-08-04T03:42:00.649Z,95.17
2016-08-04T03:43:00.660Z,95.36
2016-08-04T03:44:00.662Z,94.98
2016-08-04T03:45:00.653Z,94.7
2016-08-04T03:45:59.937Z,95.56
2016-08-04T03:47:00.654Z,95.46
2016-08-04T03:47:59.940Z,95.46
2016-08-04T03:48:59.941Z,95.27
2016-08-04T03:50:00.657Z,95.17
2016-08-04T03:51:00.665Z,95.07
2016-08-04T03:51:59.941Z,95.17
2016-08-04T03:52:59.949Z,95.36
2016-08-04T03:54:00.665Z,95.65
2016-08-04T03:55:00.661Z,95.65
2016-08-04T03:55:59.941Z,95.46
2016-08-04T03:57:00.665Z,95.17
2016-08-04T03:58:00.662Z,95.56
2016-08-04T03:59:00.665Z,95.27
2016-08-04T04:00:00.665Z,95.56
2016-08-04T04:01:00.669Z,95.75
2016-08-04T04:01:59.953Z,95.46
2016-08-04T04:02:59.946Z,95.75
2016-08-04T04:04:00.046Z,95.07
2016-08-04T04:05:00.671Z,94.98
2016-08-04T04:05:59.945Z,94.89
2016-08-04T04:07:00.669Z,94.7
2016-08-04T04:08:00.666Z,94.6
2016-08-04T04:09:00.674Z,95.17
2016-08-04T04:09:59.954Z,94.5
2016-08-04T04:11:00.678Z,94.98
2016-08-04T04:12:00.678Z,95.07
2016-08-04T04:12:59.950Z,95.46
2016-08-04T04:14:00.665Z,95.36
2016-08-04T04:15:00.678Z,95.17
2016-08-04T04:15:59.961Z,95.36
2016-08-04T04:17:00.673Z,95.46
2016-08-04T04:18:00.677Z,95.36
2016-08-04T04:18:59.953Z,95.56
2016-08-04T04:20:00.674Z,95.94
2016-08-04T04:21:00.679Z,96.03
2016-08-04T04:21:59.954Z,95.94
2016-08-04T04:23:00.673Z,96.18
2016-08-04T04:24:00.678Z,95.61
2016-08-04T04:24:59.965Z,96.08
2016-08-04T04:26:00.678Z,96.37
2016-08-04T04:26:59.974Z,96.37
2016-08-04T04:27:59.966Z,97.04
2016-08-04T04:28:59.961Z,97.28
2016-08-04T04:30:00.694Z,97.09
2016-08-04T04:31:00.691Z,97.28
2016-08-04T04:31:59.966Z,97.33
2016-08-04T04:33:00.674Z,96.66
2016-08-04T04:34:00.678Z,97.14
2016-08-04T04:34:59.958Z,96.61
2016-08-04T04:36:00.678Z,96.18
2016-08-04T04:36:59.974Z,94.84
2016-08-04T04:38:00.683Z,95.36
2016-08-04T04:39:00.690Z,93.15
2016-08-04T04:40:00.683Z,92
2016-08-04T04:41:00.683Z,91.72
2016-08-04T04:42:00.691Z,90.75
2016-08-04T04:42:59.967Z,89.36
2016-08-04T04:44:00.683Z,88.59
2016-08-04T04:45:00.683Z,88.06
2016-08-04T04:46:00.683Z,86.52
2016-08-04T04:47:00.683Z,85.75
2016-08-04T04:47:59.964Z,84.31
2016-08-04T04:48:59.967Z,81.19
2016-08-04T04:50:00.684Z,81.32
2016-08-04T04:51:00.696Z,80.55
2016-08-04T04:52:00.680Z,79.79
2016-08-04T04:53:00.683Z,78.86
2016-08-04T04:54:00.692Z,77.51
2016-08-04T04:54:59.975Z,75.31
2016-08-04T04:56:00.687Z,75.15
2016-08-04T04:57:00.692Z,74.29
2016-08-04T04:57:59.968Z,73.94
2016-08-04T04:58:59.976Z,73.36
2016-08-04T05:00:00.695Z,72.53
2016-08-04T05:01:00.696Z,71.18
2016-08-04T05:02:00.688Z,70.25
2016-08-04T05:03:00.695Z,69.32
2016-08-04T05:04:00.689Z,68.29
2016-08-04T05:04:59.975Z,66.94
2016-08-04T05:06:00.695Z,65.63
2016-08-04T05:07:00.699Z,63.53
2016-08-04T05:08:00.688Z,61.92
2016-08-04T05:09:00.696Z,60.89
2016-08-04T05:10:00.700Z,59.92
2016-08-04T05:11:00.695Z,59.53
2016-08-04T05:12:00.696Z,58.89
2016-08-04T05:13:00.695Z,58.8
2016-08-04T05:14:00.700Z,57.46
2016-08-04T05:14:59.984Z,56.62
2016-08-04T05:15:59.980Z,55.49
2016-08-04T05:17:00.702Z,54.09
2016-08-04T05:18:00.701Z,52.76
2016-08-04T05:19:00.696Z,51.53
2016-08-04T05:20:00.704Z,50.19
2016-08-04T05:20:59.980Z,48.88
2016-08-04T05:22:00.704Z,47.54
2016-08-04T05:23:00.708Z,46.01
2016-08-04T05:24:00.703Z,45.25
2016-08-04T05:25:00.709Z,44.32
2016-08-04T05:26:00.712Z,43.27
2016-08-04T05:27:00.708Z,42.12
2016-08-04T05:28:00.708Z,40.88
2016-08-04T05:29:00.712Z,39.65
2016-08-04T05:30:00.715Z,38.59
2016-08-04T05:31:00.716Z,37.54
2016-08-04T05:32:00.708Z,36.87
2016-08-04T05:33:00.716Z,35.91
2016-08-04T05:34:00.712Z,34.96
2016-08-04T05:35:00.716Z,34.28
2016-08-04T05:37:00.709Z,32.54
2016-08-04T05:38:00.708Z,31.68
2016-08-04T05:39:00.717Z,30.81
2016-08-04T05:40:00.000Z,30.43
2016-08-04T05:41:00.713Z,29.57
2016-08-04T05:42:00.721Z,29.17
2016-08-04T05:43:00.001Z,28.79
2016-08-04T05:44:00.728Z,27.91
2016-08-04T05:45:00.718Z,28.11
2016-08-04T05:46:00.717Z,27.81
2016-08-04T05:47:00.722Z,27.71
2016-08-04T05:48:00.725Z,27.42
2016-08-04T05:49:00.729Z,26.53
2016-08-04T05:50:00.725Z,26.74
2016-08-04T05:51:00.014Z,26.26
2016-08-04T05:52:00.010Z,25.48
2016-08-04T05:53:00.733Z,25.29
2016-08-04T05:54:00.734Z,24.91
2016-08-04T05:55:00.018Z,24.13
2016-08-04T05:56:00.017Z,24.34
2016-08-04T05:57:00.737Z,24.24
2016-08-04T05:58:00.732Z,24.24
2016-08-04T05:59:00.737Z,24.15
2016-08-04T06:00:00.733Z,24.33
2016-08-04T06:01:00.022Z,24.71
2016-08-04T06:02:00.746Z,25.31
2016-08-04T06:03:00.022Z,25.57
2016-08-04T06:04:00.074Z,25.87
2016-08-04T06:05:00.741Z,25.48
2016-08-04T06:06:00.030Z,25.59
2016-08-04T06:07:00.749Z,25.39
2016-08-04T06:08:00.740Z,25.49
2016-08-04T06:09:00.749Z,25.29
2016-08-04T06:10:00.754Z,26.07
2016-08-04T06:11:00.761Z,26.35
2016-08-04T06:12:00.754Z,27.02
2016-08-04T06:13:00.761Z,27.6
2016-08-04T06:14:00.750Z,27.89
2016-08-04T06:15:00.030Z,28.08
2016-08-04T06:16:00.749Z,28.08
2016-08-04T06:17:00.041Z,27.69
2016-08-04T06:18:00.042Z,27.8
2016-08-04T06:19:00.766Z,27.69
2016-08-04T06:20:00.042Z,28.08
2016-08-04T06:21:00.761Z,28.27
2016-08-04T06:22:00.769Z,28.75
2016-08-04T06:23:00.766Z,29.03
2016-08-04T06:24:00.769Z,29.52
2016-08-04T06:25:00.046Z,29.9
2016-08-04T06:26:00.765Z,30.78
2016-08-04T06:27:00.773Z,31.44
2016-08-04T06:28:00.778Z,31.54
2016-08-04T06:29:00.061Z,31.34
2016-08-04T06:30:00.777Z,30.77
2016-08-04T06:31:00.782Z,30
2016-08-04T06:32:00.787Z,28.75
2016-08-04T06:33:00.778Z,27.99
2016-08-04T06:34:00.790Z,27.71
2016-08-04T06:35:00.782Z,27.42
2016-08-04T06:36:00.786Z,26.73
2016-08-04T06:37:00.786Z,26.74
2016-08-04T06:38:00.074Z,26.54
2016-08-04T06:39:00.791Z,26.64
2016-08-04T06:40:00.794Z,26.26
2016-08-04T06:41:00.799Z,25.77
2016-08-04T06:42:00.798Z,25.49
2016-08-04T06:43:00.802Z,24.91
2016-08-04T06:44:00.799Z,24.13
2016-08-04T06:45:00.803Z,23.47
2016-08-04T06:46:00.799Z,23.68
2016-08-04T06:47:00.807Z,22.89
2016-08-04T06:48:00.806Z,22.31
2016-08-04T06:49:00.806Z,21.45
2016-08-04T06:50:00.807Z,20.86
2016-08-04T06:51:00.088Z,20.57
2016-08-04T06:52:00.092Z,20.68
2016-08-04T06:53:00.095Z,20.18
2016-08-04T06:54:00.819Z,20
2016-08-04T06:55:00.100Z,19.22
2016-08-04T06:56:00.819Z,18.54
2016-08-04T06:57:00.823Z,18.35
2016-08-04T06:58:00.820Z,18.26
2016-08-04T06:59:00.831Z,17.47
2016-08-04T07:00:00.827Z,17.18
2016-08-04T07:01:00.831Z,16.4
2016-08-04T07:02:00.828Z,16.31
2016-08-04T07:03:00.828Z,16.01
2016-08-04T07:04:00.836Z,15.61
2016-08-04T07:05:00.827Z,15.81
2016-08-04T07:06:00.116Z,15.22
2016-08-04T07:07:00.835Z,14.93
2016-08-04T07:08:00.120Z,14.45
2016-08-04T07:09:00.120Z,14.26
2016-08-04T07:10:00.123Z,13.77
2016-08-04T07:11:00.124Z,13.39
2016-08-04T07:12:00.852Z,13.2
2016-08-04T07:13:00.128Z,12.5
2016-08-04T07:14:00.857Z,11.71
2016-08-04T07:15:00.137Z,11.91
2016-08-04T07:16:00.865Z,11.22
2016-08-04T07:17:00.860Z,11.02
2016-08-04T07:18:00.864Z,10.63
2016-08-04T07:19:00.136Z,10.13
2016-08-04T07:20:00.861Z,10.33
2016-08-04T07:21:00.149Z,10.24
2016-08-04T07:22:00.212Z,10.13
2016-08-04T07:23:00.872Z,10.53
2016-08-04T07:24:00.869Z,10.63
2016-08-04T07:25:00.869Z,10.53
2016-08-04T07:26:00.873Z,10.42
2016-08-04T07:27:00.161Z,11.02
2016-08-04T07:28:00.156Z,11.11
2016-08-04T07:29:00.893Z,10.92
2016-08-04T07:30:00.164Z,10.92
2016-08-04T07:31:00.892Z,11.11
2016-08-04T07:32:00.881Z,10.72
2016-08-04T07:33:00.885Z,10.82
2016-08-04T07:34:00.886Z,10.53
2016-08-04T07:35:00.185Z,10.13
2016-08-04T07:36:00.974Z,10.33
2016-08-04T07:37:00.896Z,10.03
2016-08-04T07:38:00.176Z,10.03
2016-08-04T07:39:00.909Z,10.13
2016-08-04T07:40:00.906Z,9.63
2016-08-04T07:41:00.188Z,10.43
2016-08-04T07:42:00.184Z,10.81
2016-08-04T07:43:00.913Z,11.1
2016-08-04T07:44:00.909Z,11.79
2016-08-04T07:45:00.189Z,11.77
2016-08-04T07:46:00.913Z,11.77
2016-08-04T07:47:01.000Z,11.68
2016-08-04T07:48:00.912Z,11.47
2016-08-04T07:49:00.913Z,11.37
2016-08-04T07:50:00.924Z,10.97
2016-08-04T07:51:00.206Z,11.18
2016-08-04T07:52:00.209Z,10.88
2016-08-04T07:53:00.929Z,11.08
2016-08-04T07:54:00.928Z,11.57
2016-08-04T07:55:00.932Z,11.57
2016-08-04T07:56:00.941Z,11.66
2016-08-04T07:57:00.220Z,12.35
2016-08-04T07:58:00.941Z,13.04
2016-08-04T07:59:00.937Z,13.72
2016-08-04T08:00:00.226Z,13.71
2016-08-04T08:01:00.948Z,12.92
2016-08-04T08:02:00.946Z,13.13
2016-08-04T08:03:00.956Z,12.44
2016-08-04T08:04:01.057Z,12.34
2016-08-04T08:05:00.238Z,11.25
2016-08-04T08:06:00.954Z,11.36
2016-08-04T08:07:00.241Z,11.56
2016-08-04T08:08:00.965Z,11.46
2016-08-04T08:09:00.249Z,11.36
2016-08-04T08:10:00.965Z,11.06
2016-08-04T08:11:00.249Z,10.96
2016-08-04T08:12:00.970Z,10.87
2016-08-04T08:13:00.249Z,10.47
2016-08-04T08:14:00.986Z,10.88
2016-08-04T08:15:00.258Z,11.18
2016-08-04T08:16:00.981Z,11.38
2016-08-04T08:17:00.979Z,11.18
2016-08-04T08:18:00.986Z,11.38
2016-08-04T08:19:00.982Z,11.07
2016-08-04T08:20:00.993Z,11.66
2016-08-04T08:21:00.997Z,12.15
2016-08-04T08:22:01.002Z,12.63
2016-08-04T08:23:00.998Z,13.12
2016-08-04T08:24:00.994Z,13.31
2016-08-04T08:25:01.002Z,13.4
2016-08-04T08:26:00.281Z,13.9
2016-08-04T08:27:01.002Z,13.99
2016-08-04T08:28:01.009Z,14.39
2016-08-04T08:29:01.006Z,14.38
2016-08-04T08:30:01.009Z,14.38
2016-08-04T08:31:00.295Z,14.28
2016-08-04T08:32:01.011Z,14.28
2016-08-04T08:33:00.301Z,13.99
2016-08-04T08:34:01.018Z,13.7
2016-08-04T08:35:01.022Z,13.31
2016-08-04T08:36:01.030Z,13.12
2016-08-04T08:37:01.022Z,12.92
2016-08-04T08:38:01.030Z,13.02
2016-08-04T08:39:00.310Z,12.83
2016-08-04T08:40:01.030Z,12.54
2016-08-04T08:41:01.038Z,12.64
2016-08-04T08:42:00.326Z,12.24
2016-08-04T08:43:01.046Z,12.74
2016-08-04T08:44:01.051Z,12.34
2016-08-04T08:45:01.043Z,12.24
2016-08-04T08:46:01.058Z,12.24
2016-08-04T08:47:01.054Z,12.45
2016-08-04T08:48:01.058Z,12.24
2016-08-04T08:49:01.066Z,11.74
2016-08-04T08:50:01.059Z,11.05
2016-08-04T08:51:00.343Z,10.86
2016-08-04T08:52:01.070Z,10.77
2016-08-04T08:53:00.347Z,10.67
2016-08-04T08:54:00.351Z,10.08
2016-08-04T08:55:01.067Z,9.88
2016-08-04T08:56:00.359Z,9.78
2016-08-04T08:57:00.359Z,8.88
2016-08-04T08:58:01.080Z,9.09
2016-08-04T08:59:01.087Z,9.19
2016-08-04T09:00:00.363Z,9.28
2016-08-04T09:01:01.095Z,8.98
2016-08-04T09:02:01.091Z,9.19
2016-08-04T09:03:00.377Z,9.08
2016-08-04T09:04:01.095Z,9.08
2016-08-04T09:05:01.095Z,8.98
2016-08-04T09:06:01.103Z,9.08
2016-08-04T09:07:00.380Z,8.68
2016-08-04T09:08:01.103Z,8.58
2016-08-04T09:09:01.107Z,8.58
2016-08-04T09:10:00.395Z,8.58
2016-08-04T09:11:01.111Z,8.88
2016-08-04T09:12:01.123Z,8.88
2016-08-04T09:13:01.127Z,8.38
2016-08-04T09:14:01.123Z,8.88
2016-08-04T09:15:01.115Z,8.87
2016-08-04T09:16:01.124Z,9.17
2016-08-04T09:17:00.407Z,9.57
2016-08-04T09:18:00.407Z,9.47
2016-08-04T09:19:01.144Z,10.16
2016-08-04T09:20:01.131Z,10.36
2016-08-04T09:21:01.145Z,10.96
2016-08-04T09:22:01.145Z,11.45
2016-08-04T09:23:01.149Z,11.74
2016-08-04T09:24:00.428Z,12.44
2016-08-04T09:25:00.427Z,12.32
2016-08-04T09:26:00.435Z,12.42
2016-08-04T09:27:01.155Z,12.91
2016-08-04T09:28:01.160Z,13
2016-08-04T09:29:01.160Z,13
2016-08-04T09:30:00.440Z,13
2016-08-04T09:31:01.164Z,12.99
2016-08-04T09:32:01.183Z,13.39
2016-08-04T09:33:01.168Z,13.49
2016-08-04T09:34:01.176Z,13.68
2016-08-04T09:35:01.172Z,13.87
2016-08-04T09:36:01.171Z,14.06
2016-08-04T09:37:01.181Z,14.56
2016-08-04T09:38:01.184Z,14.36
2016-08-04T09:39:01.184Z,14.56
2016-08-04T09:40:01.184Z,14.56
2016-08-04T09:41:00.472Z,15.25
2016-08-04T09:42:01.196Z,15.15
2016-08-04T09:43:01.196Z,15.45
2016-08-04T09:44:00.477Z,15.35
2016-08-04T09:45:01.196Z,15.34
2016-08-04T09:46:01.204Z,15.84
2016-08-04T09:47:01.220Z,16.23
2016-08-04T09:48:01.205Z,16.52
2016-08-04T09:49:01.213Z,16.81
2016-08-04T09:50:01.205Z,17.59
2016-08-04T09:51:01.213Z,18.48
2016-08-04T09:52:00.752Z,18.85
2016-08-04T09:53:01.212Z,19.04
2016-08-04T09:54:01.220Z,20.01
2016-08-04T09:55:00.501Z,20.29
2016-08-04T09:56:00.508Z,21.07
2016-08-04T09:57:00.509Z,21.36
2016-08-04T09:58:01.228Z,21.84
2016-08-04T09:59:01.233Z,22.12
2016-08-04T10:00:01.242Z,22.52
2016-08-04T10:01:00.517Z,22.8
2016-08-04T10:02:00.524Z,23.58
2016-08-04T10:03:00.525Z,24.06
2016-08-04T10:04:01.397Z,24.44
2016-08-04T10:05:01.253Z,24.73
2016-08-04T10:06:01.250Z,25.02
2016-08-04T10:08:01.256Z,25.7
2016-08-04T10:09:00.533Z,25.98
2016-08-04T10:10:01.260Z,26.16
2016-08-04T10:11:01.269Z,26.55
2016-08-04T10:12:01.274Z,27.62
2016-08-04T10:13:01.273Z,28.01
2016-08-04T10:14:00.556Z,28
2016-08-04T10:15:00.557Z,28.3
2016-08-04T10:16:01.274Z,28.68
2016-08-04T10:17:01.278Z,28.49
2016-08-04T10:18:01.290Z,28.88
2016-08-04T10:19:01.281Z,29.75
2016-08-04T10:20:01.285Z,29.94
2016-08-04T10:21:01.293Z,30.91
2016-08-04T10:23:01.306Z,32.97
2016-08-04T10:24:00.582Z,33.34
2016-08-04T10:25:01.305Z,34.21
2016-08-04T10:26:01.306Z,34.89
2016-08-04T10:27:00.589Z,35.38
2016-08-04T10:28:00.593Z,35.95
2016-08-04T10:29:01.318Z,36.05
2016-08-04T10:30:01.317Z,36.23
2016-08-04T10:31:00.597Z,35.55
2016-08-04T10:32:01.326Z,35.25
2016-08-04T10:33:01.329Z,34.77
2016-08-04T10:34:01.325Z,34.58
2016-08-04T10:35:01.325Z,34.29
2016-08-04T10:36:01.330Z,34
2016-08-04T10:37:01.337Z,33.22
2016-08-04T10:38:01.334Z,33.22
2016-08-04T10:39:01.346Z,33.7
2016-08-04T10:40:01.338Z,34.29
2016-08-04T10:41:01.345Z,34.29
2016-08-04T10:42:01.353Z,34.48
2016-08-04T10:43:01.361Z,34.48
2016-08-04T10:44:00.630Z,33.61
2016-08-04T10:45:01.349Z,32.82
2016-08-04T10:46:01.358Z,32.04
2016-08-04T10:47:01.366Z,31.35
2016-08-04T10:48:01.362Z,31.05
2016-08-04T10:49:01.363Z,30.77
2016-08-04T10:50:01.374Z,30.58
2016-08-04T10:51:01.378Z,31.07
2016-08-04T10:52:01.370Z,30.77
2016-08-04T10:53:01.374Z,30.58
2016-08-04T10:54:01.383Z,30.48
2016-08-04T10:55:01.387Z,30.77
2016-08-04T10:56:01.382Z,30.68
2016-08-04T10:57:01.391Z,30.29
2016-08-04T10:58:00.667Z,30.58
2016-08-04T10:59:01.391Z,30.77
2016-08-04T11:00:01.403Z,30.48
2016-08-04T11:01:01.403Z,29.5
2016-08-04T11:02:00.679Z,28.72
2016-08-04T11:03:01.404Z,27.75
2016-08-04T11:04:01.404Z,27.94
2016-08-04T11:05:01.411Z,27.75
2016-08-04T11:06:01.403Z,27.93
2016-08-04T11:07:01.415Z,28.91
2016-08-04T11:08:01.419Z,28.81
2016-08-04T11:09:00.698Z,28.91
2016-08-04T11:10:00.699Z,28.61
2016-08-04T11:11:00.711Z,28.61
2016-08-04T11:12:01.427Z,28.91
2016-08-04T11:13:01.436Z,28.52
2016-08-04T11:14:01.432Z,28.32
2016-08-04T11:15:00.718Z,27.83
2016-08-04T11:16:00.721Z,27.93
2016-08-04T11:17:01.436Z,25.88
2016-08-04T11:18:01.448Z,25.39
2016-08-04T11:19:01.448Z,25.37
2016-08-04T11:20:01.447Z,25.18
2016-08-04T11:21:01.451Z,25.75
2016-08-04T11:22:00.735Z,25.85
2016-08-04T11:23:01.453Z,25.26
2016-08-04T11:24:01.460Z,25.26
2016-08-04T11:25:01.468Z,25.65
2016-08-04T11:26:01.464Z,26.14
2016-08-04T11:27:01.468Z,25.65
2016-08-04T11:28:01.467Z,25.75
2016-08-04T11:29:00.752Z,25.86
2016-08-04T11:30:01.472Z,25.75
2016-08-04T11:31:01.475Z,24.98
2016-08-04T11:32:01.481Z,24.78
2016-08-04T11:33:01.480Z,24.68
2016-08-04T11:34:00.764Z,25.08
2016-08-04T11:35:01.481Z,22.94
2016-08-04T11:36:01.492Z,21.75
2016-08-04T11:37:01.492Z,22.05
2016-08-04T11:38:01.493Z,22.14
2016-08-04T11:39:01.493Z,22.14
2016-08-04T11:40:00.780Z,22.34
2016-08-04T11:41:01.505Z,22.34
2016-08-04T11:42:01.513Z,21.86
2016-08-04T11:43:01.523Z,21.75
2016-08-04T11:44:01.512Z,22.06
2016-08-04T11:45:01.516Z,21.08
2016-08-04T11:46:00.797Z,21.86
2016-08-04T11:47:00.792Z,21.28
2016-08-04T11:48:01.513Z,20.89
2016-08-04T11:49:01.525Z,19.81
2016-08-04T11:50:01.525Z,19.42
2016-08-04T11:51:01.529Z,18.54
2016-08-04T11:52:01.529Z,18.34
2016-08-04T11:53:01.545Z,18.05
2016-08-04T11:54:01.540Z,17.86
2016-08-04T11:55:01.544Z,17.27
2016-08-04T11:56:01.533Z,17.18
2016-08-04T11:57:00.821Z,16.98
2016-08-04T11:58:00.829Z,16.98
2016-08-04T11:59:00.832Z,16.69
2016-08-04T12:00:01.553Z,16.2
2016-08-04T12:01:01.557Z,17.37
2016-08-04T12:02:00.847Z,17.57
2016-08-04T12:03:00.847Z,18.44
2016-08-04T12:04:00.841Z,18.84
2016-08-04T12:05:01.565Z,19.71
2016-08-04T12:06:01.573Z,19.92
2016-08-04T12:07:01.572Z,20.7
2016-08-04T12:08:01.572Z,21.19
2016-08-04T12:09:00.857Z,20.9
2016-08-04T12:10:01.577Z,21.09
2016-08-04T12:11:01.581Z,20.7
2016-08-04T12:12:01.585Z,19.92
2016-08-04T12:13:00.862Z,19.24
2016-08-04T12:14:00.866Z,19.24
2016-08-04T12:15:01.586Z,19.64
2016-08-04T12:16:01.589Z,19.93
2016-08-04T12:17:01.601Z,19.73
2016-08-04T12:18:01.597Z,19.73
2016-08-04T12:19:00.877Z,19.83
2016-08-04T12:20:01.610Z,19.54
2016-08-04T12:21:01.609Z,19.15
2016-08-04T12:22:01.606Z,19.15
2016-08-04T12:23:00.893Z,18.85
2016-08-04T12:24:01.613Z,19.24
2016-08-04T12:25:01.616Z,19.54
2016-08-04T12:26:01.621Z,19.15
2016-08-04T12:27:01.620Z,18.66
2016-08-04T12:28:00.905Z,18.37
2016-08-04T12:29:01.625Z,18.17
2016-08-04T12:30:01.625Z,18.37
2016-08-04T12:31:01.633Z,18.17
2016-08-04T12:32:00.909Z,18.56
2016-08-04T12:33:01.640Z,18.27
2016-08-04T12:34:01.648Z,17.97
2016-08-04T12:35:00.926Z,18.37
2016-08-04T12:36:01.645Z,18.46
2016-08-04T12:37:01.645Z,18.27
2016-08-04T12:38:00.930Z,17.87
2016-08-04T12:39:01.658Z,17.97
2016-08-04T12:40:01.659Z,17.87
2016-08-04T12:41:01.650Z,17.97
2016-08-04T12:42:00.933Z,17.96
2016-08-04T12:43:00.942Z,17.86
2016-08-04T12:44:01.666Z,18.35
2016-08-04T12:45:01.666Z,18.54
2016-08-04T12:46:01.670Z,18.54
2016-08-04T12:47:00.950Z,19.02
2016-08-04T12:48:00.958Z,18.82
2016-08-04T12:49:01.679Z,18.54
2016-08-04T12:50:01.678Z,18.34
2016-08-04T12:51:01.686Z,18.64
2016-08-04T12:52:00.963Z,18.54
2016-08-04T12:53:00.969Z,18.93
2016-08-04T12:54:01.689Z,19.24
2016-08-04T12:55:01.690Z,19.24
2016-08-04T12:56:01.695Z,19.43
2016-08-04T12:57:01.695Z,19.63
2016-08-04T12:58:01.694Z,19.53
2016-08-04T12:59:01.703Z,19.43
2016-08-04T13:00:01.699Z,19.43